ADDS METAR Data INFO
IDs: Format: Raw Decoded Include TAF

Data at: 1049 UTC 19 Oct 2017

PASK 190956Z AUTO 34005KT 10SM CLR M09/M12 A2954 RMK AO2 SLP998 T10891122 FZRANO $
PASK 190856Z AUTO 34006KT 10SM CLR M08/M12 A2954 RMK AO2 SLP001 T10831117 410331089 58005 FZRANO $
PASK 190756Z AUTO 31005KT 10SM CLR M08/M12 A2955 RMK AO2 SLP004 T10831117 FZRANO $
PASK 190656Z AUTO 31007KT 10SM CLR M08/M12 A2956 RMK AO2 SLP005 T10831117 FZRANO $
PASK 190556Z AUTO 30005KT 10SM CLR M08/M12 A2956 RMK AO2 SLP007 T10831117 11039 21083 50001 FZRANO $
PASK 190456Z AUTO 35005KT 10SM CLR M08/M13 A2956 RMK AO2 SLP008 T10831128 FZRANO $
PASK 190356Z AUTO 34007KT 10SM CLR M08/M12 A2956 RMK AO2 SLP007 T10781122 FZRANO $
PASK 190256Z AUTO 36009KT 10SM CLR M07/M12 A2956 RMK AO2 SLP005 T10671122 53003 FZRANO $
PASK 190156Z AUTO 35011KT 10SM CLR M06/M12 A2955 RMK AO2 SLP005 T10561117 FZRANO $
PASK 190056Z AUTO 01011KT 10SM CLR M04/M11 A2955 RMK AO2 SLP002 T10441106 FZRANO $
PASK 182356Z AUTO 36011KT 10SM CLR M04/M10 A2955 RMK AO2 SLP003 T10391100 11039 21056 51003 FZRANO $
PASK 182256Z AUTO 36009KT 10SM CLR M04/M10 A2955 RMK AO2 SLP002 T10391100 FZRANO $
PASK 182156Z AUTO 02013KT 10SM CLR M04/M09 A2954 RMK AO2 SLP000 T10391094 FZRANO $
PASK 182056Z AUTO 01015G20KT 10SM CLR M04/M09 A2954 RMK AO2 SLP000 T10391089 51012 FZRANO $
PASK 181956Z AUTO 02011KT 10SM CLR M04/M07 A2953 RMK AO2 SLP996 T10391072 FZRANO $
PASK 181856Z AUTO 36007KT 10SM FEW065 M05/M08 A2952 RMK AO2 SLP993 T10501078 FZRANO $
PASK 181756Z AUTO 36010KT 10SM BKN065 M05/M08 A2950 RMK AO2 SLP988 T10501078 11033 21050 53005 FZRANO $
PASK 181656Z AUTO 33006KT 10SM OVC055 M03/M06 A2949 RMK AO2 SLP984 T10331056 FZRANO $
PASK 181556Z AUTO 34003KT 10SM BKN050 OVC070 M04/M06 A2948 RMK AO2 SLP981 T10391056 FZRANO $
PASK 181456Z AUTO 33003KT 10SM OVC075 M04/M06 A2949 RMK AO2 SLP983 T10391056 55001 FZRANO $
PASK 181356Z AUTO 01004KT 10SM SCT075 M05/M06 A2949 RMK AO2 SLP982 T10501061 FZRANO $
PASK 181256Z AUTO 29004KT 10SM OVC075 M04/M06 A2949 RMK AO2 SLP983 T10391056 FZRANO $
PASK 181156Z AUTO 25005KT 10SM OVC075 M04/M06 A2949 RMK AO2 SLP983 T10391056 11039 21056 56004 FZRANO $
PASK 181056Z AUTO 26005KT 10SM OVC085 M04/M06 A2949 RMK AO2 SLP984 T10441061 FZRANO $
PASK 180956Z AUTO 26003KT 10SM FEW100 M05/M07 A2950 RMK AO2 SLP986 T10501067 FZRANO $
PASK 180856Z AUTO 25004KT 10SM CLR M06/M06 A2950 RMK AO2 SLP988 T10561061 400001056 51003 FZRANO $
PASK 180756Z AUTO 30005KT 10SM CLR M04/M06 A2950 RMK AO2 SLP988 T10441061 FZRANO $
PASK 180656Z AUTO 29005KT 10SM CLR M04/M06 A2950 RMK AO2 SLP986 T10441061 FZRANO $
PASK 180556Z AUTO 30005KT 10SM CLR M04/M06 A2949 RMK AO2 SLP985 60000 T10441056 11011 21044 53002 FZRANO $
PASK 180456Z AUTO 33005KT 10SM CLR M03/M04 A2949 RMK AO2 SLP984 T10331044 FZRANO $
PASK 180356Z AUTO 33004KT 10SM CLR M03/M04 A2949 RMK AO2 SLP984 T10331044 FZRANO $
PASK 180256Z AUTO 00000KT 10SM BKN044 OVC100 M02/M03 A2949 RMK AO2 UPB36E45 SLP983 P0000 60000 T10221033 55002 FZRANO $
PASK 180156Z AUTO 28004KT 10SM BKN047 OVC055 M02/M03 A2949 RMK AO2 SLP983 T10171033 FZRANO $
PASK 180056Z AUTO 28005KT 10SM BKN090 M01/M03 A2949 RMK AO2 SLP984 T10111028 FZRANO $
PASK 172356Z AUTO 00000KT 10SM OVC100 M02/M03 A2950 RMK AO2 SLP986 60000 T10171033 11011 21022 58003 FZRANO $
PASK 172304Z AUTO 32004KT 10SM SCT012 SCT120 M02/M03 A2950 RMK AO2 FZRANO $
PASK 172256Z AUTO 34006KT 10SM BKN012 M02/M03 A2951 RMK AO2 SNE23 SLP989 P0000 T10171028 FZRANO $